Time;durP1;ratioP1;P1;durP2;ratioP2;P2;SDS_P1;SDS_P2;PMS_P1;PMS_P2;Temp;Humidity;BMP_temperature;BMP_pressure;BME280_temperature;BME280_humidity;BME280_pressure;Samples;Min_cycle;Max_cycle;Signal;HPM_P1;HPM_P2
2021/10/14 00:01:32;;;;;;;4.47;3.03;;;2.90;99.90;;;;;;4933092;29;20063;-84
2021/10/14 00:04:01;;;;;;;3.70;3.05;;;3.10;99.90;;;;;;4941776;28;20054;-84
2021/10/14 00:06:28;;;;;;;4.18;3.28;;;3.00;99.90;;;;;;4970792;28;20062;-84
2021/10/14 00:08:56;;;;;;;4.82;3.20;;;3.00;99.90;;;;;;4970296;28;20429;-84
2021/10/14 00:11:24;;;;;;;5.22;4.63;;;3.10;99.90;;;;;;4971668;28;20051;-83
2021/10/14 00:13:52;;;;;;;11.05;4.47;;;3.00;99.90;;;;;;4961505;28;20043;-84
2021/10/14 00:16:19;;;;;;;3.88;3.00;;;3.00;99.90;;;;;;4933300;29;20047;-84
2021/10/14 00:18:47;;;;;;;3.50;3.17;;;3.00;99.90;;;;;;4933213;29;20047;-84
2021/10/14 00:21:15;;;;;;;4.38;3.45;;;2.80;99.90;;;;;;4933039;29;20052;-84
2021/10/14 00:23:42;;;;;;;4.13;3.72;;;2.90;99.90;;;;;;4933359;29;20055;-84
2021/10/14 00:26:11;;;;;;;4.07;3.60;;;2.90;99.90;;;;;;4949413;28;20462;-84
2021/10/14 00:28:39;;;;;;;5.28;4.22;;;2.90;99.90;;;;;;4934005;28;20059;-84
2021/10/14 00:31:08;;;;;;;3.35;3.15;;;2.90;99.90;;;;;;4920091;29;20472;-84
2021/10/14 00:33:36;;;;;;;4.00;3.17;;;2.90;99.90;;;;;;4950540;28;20067;-84
2021/10/14 00:36:03;;;;;;;5.88;3.70;;;2.90;99.90;;;;;;4951634;29;20051;-84
2021/10/14 00:38:31;;;;;;;4.35;3.58;;;2.90;99.90;;;;;;4951915;28;20059;-84
2021/10/14 00:40:59;;;;;;;5.18;2.83;;;2.80;99.90;;;;;;4949545;28;20070;-84
2021/10/14 00:43:27;;;;;;;5.40;3.83;;;2.90;99.90;;;;;;4951798;29;20051;-84
2021/10/14 00:45:54;;;;;;;4.22;3.65;;;3.00;99.90;;;;;;4951580;28;20058;-84
2021/10/14 00:48:22;;;;;;;5.75;3.25;;;2.90;99.90;;;;;;4939083;29;20063;-84
2021/10/14 00:50:50;;;;;;;5.63;4.25;;;2.90;99.90;;;;;;4932494;29;20047;-84
2021/10/14 00:53:18;;;;;;;4.50;3.60;;;2.80;99.90;;;;;;4932638;29;20043;-84
2021/10/14 00:55:45;;;;;;;5.47;3.03;;;2.80;99.90;;;;;;4932909;29;20522;-84
2021/10/14 00:58:13;;;;;;;5.72;3.63;;;2.90;99.90;;;;;;4931877;29;20044;-84
2021/10/14 01:00:41;;;;;;;5.47;4.95;;;3.00;99.90;;;;;;4932597;29;20052;-84
2021/10/14 01:03:09;;;;;;;4.43;4.03;;;2.90;99.90;;;;;;4933278;29;20521;-84
2021/10/14 01:05:38;;;;;;;4.78;4.05;;;2.90;99.90;;;;;;4967724;28;20046;-84
2021/10/14 01:08:05;;;;;;;8.77;4.47;;;2.90;99.90;;;;;;4970803;28;20054;-84
2021/10/14 01:10:34;;;;;;;4.70;3.75;;;2.90;99.90;;;;;;4970399;28;20047;-84
2021/10/14 01:13:02;;;;;;;6.88;4.00;;;2.90;99.90;;;;;;4968879;28;20401;-83
2021/10/14 01:15:30;;;;;;;3.60;3.25;;;2.90;99.90;;;;;;4971162;28;20065;-84
2021/10/14 01:17:57;;;;;;;7.78;5.10;;;2.90;99.90;;;;;;4969327;28;20138;-84
2021/10/14 01:20:26;;;;;;;5.72;3.25;;;3.00;99.90;;;;;;4970776;28;20050;-83
2021/10/14 01:22:54;;;;;;;6.93;3.95;;;3.00;99.90;;;;;;4970231;28;20058;-84
2021/10/14 01:25:23;;;;;;;5.57;4.13;;;2.90;99.90;;;;;;4960684;28;20051;-84
2021/10/14 01:27:51;;;;;;;4.88;4.38;;;3.00;99.90;;;;;;4951414;29;20046;-83
2021/10/14 01:30:18;;;;;;;5.80;4.07;;;3.10;99.90;;;;;;4950183;29;20187;-84
2021/10/14 01:32:49;;;;;;;5.40;4.68;;;3.00;99.90;;;;;;4951487;28;20067;-83
2021/10/14 01:35:18;;;;;;;5.82;3.78;;;3.00;99.90;;;;;;4951550;28;20051;-83
2021/10/14 01:37:46;;;;;;;6.05;4.10;;;3.10;99.90;;;;;;4951215;28;20043;-84
2021/10/14 01:40:14;;;;;;;6.22;4.43;;;3.00;99.90;;;;;;4950294;29;20053;-84
2021/10/14 01:42:42;;;;;;;5.43;4.43;;;3.10;99.90;;;;;;4950523;28;20126;-83
2021/10/14 01:45:11;;;;;;;4.55;4.10;;;3.00;99.90;;;;;;4953174;28;20043;-84
2021/10/14 01:47:43;;;;;;;5.43;3.95;;;3.10;99.90;;;;;;4955424;29;20409;-84
2021/10/14 01:50:10;;;;;;;8.68;5.50;;;3.10;99.90;;;;;;4954711;28;20470;-84
2021/10/14 01:52:38;;;;;;;5.07;4.28;;;3.20;99.90;;;;;;4937362;28;20050;-84
2021/10/14 01:55:06;;;;;;;7.00;4.30;;;3.10;99.90;;;;;;4938168;29;20062;-84
2021/10/14 01:57:34;;;;;;;5.88;3.75;;;3.10;99.90;;;;;;4941211;29;20067;-84
2021/10/14 02:00:04;;;;;;;6.97;4.78;;;3.00;99.90;;;;;;4936265;29;20485;-84
2021/10/14 02:02:38;;;;;;;8.07;4.85;;;3.00;99.90;;;;;;4935766;29;20051;-84
2021/10/14 02:05:07;;;;;;;6.13;4.88;;;3.00;99.90;;;;;;4935768;29;20054;-84
2021/10/14 02:07:35;;;;;;;4.38;3.97;;;3.00;99.90;;;;;;4918910;29;20051;-84
2021/10/14 02:10:04;;;;;;;5.30;4.80;;;2.90;99.90;;;;;;4935442;29;20055;-84
2021/10/14 02:12:31;;;;;;;7.03;4.95;;;2.90;99.90;;;;;;4941623;29;20060;-84
2021/10/14 02:14:59;;;;;;;7.40;4.18;;;2.90;99.90;;;;;;4934971;29;20138;-84
2021/10/14 02:17:27;;;;;;;5.40;4.97;;;2.90;99.90;;;;;;4935418;29;20054;-84
2021/10/14 02:19:55;;;;;;;4.95;3.83;;;2.80;99.90;;;;;;4935790;29;20051;-84
2021/10/14 02:22:22;;;;;;;6.32;5.05;;;2.80;99.90;;;;;;4934937;29;20421;-84
2021/10/14 02:24:50;;;;;;;10.00;5.43;;;2.80;99.90;;;;;;4935110;29;20039;-84
2021/10/14 02:27:18;;;;;;;5.97;5.25;;;2.90;99.90;;;;;;4934847;29;20052;-84
2021/10/14 02:29:46;;;;;;;4.45;3.95;;;2.80;99.90;;;;;;4934967;29;20051;-84
2021/10/14 02:32:13;;;;;;;7.78;5.20;;;2.80;99.90;;;;;;4947381;29;20413;-84
2021/10/14 02:34:41;;;;;;;6.75;4.05;;;2.70;99.90;;;;;;4954218;28;20051;-84
2021/10/14 02:37:09;;;;;;;4.97;3.67;;;2.80;99.90;;;;;;4954266;28;20051;-84
2021/10/14 02:39:37;;;;;;;6.45;4.47;;;2.80;99.90;;;;;;4926455;29;20389;-84
2021/10/14 02:42:04;;;;;;;6.53;5.35;;;2.80;99.90;;;;;;4947981;28;20484;-84
2021/10/14 02:44:32;;;;;;;5.13;3.65;;;2.80;99.90;;;;;;4952384;28;20058;-84
2021/10/14 02:47:01;;;;;;;6.30;4.80;;;2.70;99.90;;;;;;4935054;29;20054;-84
2021/10/14 02:49:30;;;;;;;6.33;4.27;;;2.70;99.90;;;;;;4933656;29;20055;-84
2021/10/14 02:51:58;;;;;;;5.95;4.30;;;2.80;99.90;;;;;;4933672;29;20091;-84
2021/10/14 02:54:26;;;;;;;4.95;4.32;;;2.80;99.90;;;;;;4934235;29;20051;-84
2021/10/14 02:56:54;;;;;;;6.63;5.15;;;2.80;99.90;;;;;;4934411;29;20047;-84
2021/10/14 02:59:21;;;;;;;4.30;3.90;;;2.90;99.90;;;;;;4949425;29;20056;-84
2021/10/14 03:01:49;;;;;;;5.03;4.53;;;3.00;99.90;;;;;;4934667;29;20504;-84
2021/10/14 03:04:18;;;;;;;12.02;4.88;;;3.10;99.90;;;;;;4933977;29;20044;-84
2021/10/14 03:06:45;;;;;;;6.03;5.47;;;3.20;99.90;;;;;;4917634;29;20047;-84
2021/10/14 03:09:13;;;;;;;9.90;4.75;;;3.10;99.90;;;;;;4934350;29;20521;-84
2021/10/14 03:11:41;;;;;;;6.13;5.32;;;3.10;99.90;;;;;;4934828;29;20047;-84
2021/10/14 03:14:09;;;;;;;7.85;5.80;;;3.10;99.90;;;;;;4932650;29;20051;-84
2021/10/14 03:16:37;;;;;;;7.88;5.70;;;3.10;99.90;;;;;;4934536;29;20066;-84
2021/10/14 03:19:04;;;;;;;7.25;4.65;;;3.10;99.90;;;;;;4934917;29;20055;-84
2021/10/14 03:21:32;;;;;;;5.90;5.28;;;3.10;99.90;;;;;;4948308;29;20493;-85
2021/10/14 03:24:00;;;;;;;7.28;5.57;;;3.20;99.90;;;;;;4934544;29;20044;-84
2021/10/14 03:26:28;;;;;;;6.97;4.60;;;3.20;99.90;;;;;;4952787;28;20047;-84
2021/10/14 03:28:56;;;;;;;8.70;5.13;;;3.20;99.90;;;;;;4951428;28;20043;-84
2021/10/14 03:31:24;;;;;;;7.43;5.30;;;3.20;99.90;;;;;;4936295;28;20058;-84
2021/10/14 03:33:51;;;;;;;9.30;6.25;;;3.20;99.90;;;;;;4953217;28;20054;-84
2021/10/14 03:36:19;;;;;;;6.18;5.28;;;3.20;99.90;;;;;;4953506;29;20047;-84
2021/10/14 03:38:47;;;;;;;6.07;4.97;;;3.20;99.90;;;;;;4953108;28;20058;-84
2021/10/14 03:41:15;;;;;;;11.23;7.72;;;3.30;99.90;;;;;;4951422;28;20405;-84
2021/10/14 03:43:43;;;;;;;8.02;5.72;;;3.30;99.90;;;;;;4951821;29;20043;-84
2021/10/14 03:46:10;;;;;;;6.10;5.03;;;3.30;99.90;;;;;;4951710;29;20051;-84
2021/10/14 03:48:38;;;;;;;7.35;5.18;;;3.30;99.90;;;;;;4935497;28;20127;-85
2021/10/14 03:51:06;;;;;;;7.72;6.38;;;3.40;99.90;;;;;;4954292;28;20474;-84
2021/10/14 03:53:34;;;;;;;7.43;6.47;;;3.40;99.90;;;;;;4943833;28;20042;-83
2021/10/14 03:56:02;;;;;;;8.10;5.50;;;3.40;99.90;;;;;;4961311;28;20070;-84
2021/10/14 03:58:33;;;;;;;9.18;4.47;;;3.50;99.90;;;;;;4961464;28;20043;-85
2021/10/14 04:01:01;;;;;;;8.93;5.97;;;3.50;99.90;;;;;;4962305;28;20051;-85
2021/10/14 04:03:29;;;;;;;6.18;4.88;;;3.50;99.90;;;;;;4953417;28;20040;-85
2021/10/14 04:05:56;;;;;;;6.35;4.88;;;3.50;99.90;;;;;;4963366;28;20043;-86
2021/10/14 04:08:24;;;;;;;7.63;6.47;;;3.60;99.90;;;;;;4961568;28;20495;-85
2021/10/14 04:10:52;;;;;;;8.45;5.68;;;3.60;99.90;;;;;;4962623;28;20050;-85
2021/10/14 04:13:19;;;;;;;8.55;7.15;;;3.60;99.90;;;;;;4960408;28;20047;-85
2021/10/14 04:15:48;;;;;;;15.68;6.18;;;3.60;99.90;;;;;;4933340;29;20080;-85
2021/10/14 04:18:16;;;;;;;6.10;5.20;;;3.70;99.90;;;;;;4932088;29;20048;-85
2021/10/14 04:20:44;;;;;;;6.68;5.95;;;3.70;99.90;;;;;;4931809;29;20071;-83
2021/10/14 04:23:12;;;;;;;10.60;5.13;;;3.80;99.90;;;;;;4933580;29;20047;-85
2021/10/14 04:25:40;;;;;;;8.02;5.25;;;3.70;99.90;;;;;;4945171;28;20390;-86
2021/10/14 04:28:08;;;;;;;6.38;4.68;;;3.80;99.90;;;;;;4952032;29;20062;-85
2021/10/14 04:30:37;;;;;;;6.45;4.85;;;3.80;99.90;;;;;;4950645;28;20474;-85
2021/10/14 04:33:05;;;;;;;8.13;7.15;;;3.80;99.90;;;;;;4959641;28;20050;-85
2021/10/14 04:35:33;;;;;;;7.35;6.32;;;3.90;99.90;;;;;;4962048;28;20399;-84
2021/10/14 04:38:01;;;;;;;12.18;7.40;;;3.80;99.90;;;;;;4954994;28;20526;-84
2021/10/14 04:40:29;;;;;;;9.45;6.30;;;3.80;99.90;;;;;;4951454;28;20476;-84
2021/10/14 04:42:57;;;;;;;10.52;7.82;;;3.80;99.90;;;;;;4950432;28;20669;-83
2021/10/14 04:45:24;;;;;;;10.43;6.68;;;3.80;99.90;;;;;;4951296;28;20485;-81
2021/10/14 04:47:52;;;;;;;7.45;6.63;;;3.80;99.90;;;;;;4956721;28;20070;-81
2021/10/14 04:50:22;;;;;;;9.52;6.93;;;3.80;99.90;;;;;;4970820;28;20591;-83
2021/10/14 04:52:50;;;;;;;6.80;5.07;;;3.90;99.90;;;;;;4970725;28;20055;-85
2021/10/14 04:55:20;;;;;;;8.02;5.53;;;3.80;99.90;;;;;;4954646;28;20055;-85
2021/10/14 04:57:52;;;;;;;12.25;7.38;;;4.00;99.90;;;;;;4930824;29;20056;-84
2021/10/14 05:00:20;;;;;;;10.00;6.93;;;3.90;99.90;;;;;;4932896;29;20059;-83
2021/10/14 05:02:48;;;;;;;11.85;6.75;;;3.90;99.90;;;;;;4930901;29;20044;-85
2021/10/14 05:05:16;;;;;;;26.17;8.77;;;3.90;99.90;;;;;;4962014;28;20043;-85
2021/10/14 05:07:44;;;;;;;12.27;8.02;;;3.90;99.90;;;;;;4971010;28;20043;-86
2021/10/14 05:10:12;;;;;;;9.48;8.23;;;3.90;99.90;;;;;;4969659;28;20055;-86
2021/10/14 05:12:40;;;;;;;7.82;6.30;;;3.90;99.90;;;;;;4970331;28;20138;-85
2021/10/14 05:15:09;;;;;;;6.63;6.03;;;3.90;99.90;;;;;;4970107;28;20515;-86
2021/10/14 05:17:46;;;;;;;10.52;7.38;;;4.00;99.90;;;;;;4969785;28;20058;-86
2021/10/14 05:20:14;;;;;;;9.63;7.43;;;3.90;99.90;;;;;;4970831;28;20047;-86
2021/10/14 05:22:44;;;;;;;9.95;6.13;;;3.90;99.90;;;;;;4971744;28;20054;-86
2021/10/14 05:25:12;;;;;;;10.32;6.57;;;3.90;99.90;;;;;;4960183;28;20035;-85
2021/10/14 05:27:40;;;;;;;10.27;5.35;;;3.90;99.90;;;;;;4951750;29;20047;-86
2021/10/14 05:30:09;;;;;;;11.02;6.60;;;3.90;99.90;;;;;;4950881;28;20539;-86
2021/10/14 05:32:36;;;;;;;9.68;6.50;;;3.90;99.90;;;;;;4951499;28;20067;-86
2021/10/14 05:35:05;;;;;;;10.10;5.82;;;3.90;99.90;;;;;;4950904;28;20054;-86
2021/10/14 05:37:40;;;;;;;8.80;6.53;;;3.90;99.90;;;;;;4951278;28;20066;-86
2021/10/14 05:40:08;;;;;;;8.23;6.82;;;3.90;99.90;;;;;;4950664;29;20047;-80
2021/10/14 05:42:36;;;;;;;6.90;5.82;;;3.80;99.90;;;;;;4948450;29;20055;-80
2021/10/14 05:45:04;;;;;;;10.68;8.98;;;3.90;99.90;;;;;;4949907;29;20035;-80
2021/10/14 05:47:32;;;;;;;11.85;8.70;;;3.90;99.90;;;;;;4951409;29;20052;-80
2021/10/14 05:50:00;;;;;;;10.10;7.22;;;3.90;99.90;;;;;;4951449;28;20062;-80
2021/10/14 05:52:28;;;;;;;8.90;7.82;;;4.10;99.90;;;;;;4951288;29;20887;-81
2021/10/14 05:54:55;;;;;;;13.70;8.48;;;4.10;99.90;;;;;;4949887;29;20050;-80
2021/10/14 05:57:23;;;;;;;9.77;6.82;;;4.20;99.90;;;;;;4949179;29;20047;-80
2021/10/14 05:59:56;;;;;;;13.77;9.25;;;4.30;99.90;;;;;;4939614;29;20074;-81
2021/10/14 06:02:23;;;;;;;15.13;7.47;;;4.50;99.90;;;;;;4933801;29;20048;-81
2021/10/14 06:04:51;;;;;;;9.80;7.10;;;4.40;99.90;;;;;;4962151;28;20051;-81
2021/10/14 06:07:19;;;;;;;10.75;7.70;;;4.50;99.90;;;;;;4952756;28;20054;-80
2021/10/14 06:09:46;;;;;;;12.32;7.57;;;4.50;99.90;;;;;;4950942;28;20082;-81
2021/10/14 06:12:14;;;;;;;10.27;7.05;;;4.60;99.90;;;;;;4950987;29;20047;-80
2021/10/14 06:14:42;;;;;;;9.07;7.03;;;4.60;99.90;;;;;;4949465;29;20055;-81
2021/10/14 06:17:10;;;;;;;10.10;7.47;;;4.60;99.90;;;;;;4951082;28;20059;-82
2021/10/14 06:19:38;;;;;;;8.93;5.90;;;4.70;99.90;;;;;;4951567;29;20051;-80
2021/10/14 06:22:08;;;;;;;12.52;6.68;;;4.80;99.90;;;;;;4950873;28;20409;-84
2021/10/14 06:24:36;;;;;;;11.50;6.90;;;4.70;99.90;;;;;;4950784;28;20063;-85
2021/10/14 06:27:03;;;;;;;8.80;6.53;;;4.80;99.90;;;;;;4951083;29;20047;-81
2021/10/14 06:29:31;;;;;;;16.13;10.55;;;4.80;99.90;;;;;;4948997;28;20043;-81
2021/10/14 06:31:59;;;;;;;9.27;6.05;;;4.80;99.90;;;;;;4954277;28;20051;-81
2021/10/14 06:34:27;;;;;;;14.90;10.00;;;4.80;99.90;;;;;;4954497;28;20586;-81
2021/10/14 06:36:54;;;;;;;10.65;7.97;;;4.90;99.90;;;;;;4954714;28;20507;-81
2021/10/14 06:39:22;;;;;;;9.48;7.75;;;4.90;99.90;;;;;;4954498;29;20047;-81
2021/10/14 06:41:50;;;;;;;11.20;8.50;;;5.00;99.90;;;;;;4952664;29;20066;-81
2021/10/14 06:44:17;;;;;;;9.82;6.78;;;5.10;99.90;;;;;;4936210;29;20078;-81
2021/10/14 06:46:45;;;;;;;10.20;6.63;;;5.00;99.90;;;;;;4954083;28;20070;-80
2021/10/14 06:49:13;;;;;;;11.10;7.35;;;5.00;99.90;;;;;;4953822;28;20059;-81
2021/10/14 06:51:41;;;;;;;14.55;8.80;;;5.20;99.90;;;;;;4954266;29;20047;-82
2021/10/14 06:54:12;;;;;;;7.25;6.50;;;5.20;99.90;;;;;;4953854;28;20527;-81
2021/10/14 06:56:40;;;;;;;7.65;5.53;;;5.30;99.90;;;;;;4953142;28;20055;-80
2021/10/14 06:59:09;;;;;;;12.55;6.63;;;5.40;99.90;;;;;;4954175;29;20059;-81
2021/10/14 07:01:36;;;;;;;5.82;5.20;;;5.40;99.90;;;;;;4959660;28;20054;-80
2021/10/14 07:04:05;;;;;;;8.70;7.05;;;5.40;99.90;;;;;;4954100;29;20047;-80
2021/10/14 07:06:33;;;;;;;8.55;6.05;;;5.50;99.90;;;;;;4953707;28;20048;-87
2021/10/14 07:09:02;;;;;;;6.63;5.82;;;5.50;99.90;;;;;;4954537;28;20050;-87
2021/10/14 07:11:32;;;;;;;8.43;7.10;;;5.50;99.90;;;;;;4938100;29;20050;-86
2021/10/14 07:14:00;;;;;;;7.20;5.00;;;5.50;99.90;;;;;;4922059;29;20047;-86
2021/10/14 07:16:28;;;;;;;8.77;5.30;;;5.70;99.90;;;;;;4954317;29;20051;-81
2021/10/14 07:18:56;;;;;;;13.35;7.78;;;5.70;99.90;;;;;;4951973;29;20051;-81
2021/10/14 07:21:28;;;;;;;7.70;6.15;;;5.90;99.90;;;;;;4952904;28;20055;-80
2021/10/14 07:23:56;;;;;;;7.53;6.43;;;5.80;99.90;;;;;;4952213;29;20055;-80
2021/10/14 07:26:24;;;;;;;6.65;4.75;;;5.90;99.90;;;;;;4949540;29;20077;-86
2021/10/14 07:28:52;;;;;;;10.10;6.28;;;5.90;99.90;;;;;;4948598;29;20047;-86
2021/10/14 07:31:20;;;;;;;13.40;4.80;;;5.90;99.90;;;;;;4933815;29;20400;-86
2021/10/14 07:33:49;;;;;;;8.10;5.05;;;6.00;99.90;;;;;;4933139;29;20059;-87
2021/10/14 07:36:17;;;;;;;6.75;5.75;;;6.00;99.90;;;;;;4934105;29;20054;-87
2021/10/14 07:38:45;;;;;;;6.90;4.80;;;6.10;99.90;;;;;;4917745;29;20129;-86
2021/10/14 07:41:14;;;;;;;6.95;5.22;;;6.10;99.90;;;;;;4932710;29;20066;-86
2021/10/14 07:43:41;;;;;;;6.72;5.00;;;6.20;99.90;;;;;;4932243;29;20056;-87
2021/10/14 07:46:10;;;;;;;5.80;4.50;;;6.30;99.90;;;;;;4933373;29;20051;-87
2021/10/14 07:48:38;;;;;;;5.38;4.15;;;6.40;99.90;;;;;;4933308;29;20067;-87
2021/10/14 07:51:07;;;;;;;5.85;4.45;;;6.40;99.90;;;;;;4932911;29;20054;-87
2021/10/14 07:53:35;;;;;;;7.07;6.45;;;6.60;99.90;;;;;;4933733;29;20047;-86
2021/10/14 07:56:05;;;;;;;5.72;4.32;;;6.80;99.90;;;;;;4934478;29;20072;-86
2021/10/14 07:58:33;;;;;;;4.93;4.43;;;6.80;99.90;;;;;;4947690;29;20040;-85
2021/10/14 08:01:01;;;;;;;12.38;4.05;;;6.80;99.90;;;;;;4948110;29;20051;-86
2021/10/14 08:03:29;;;;;;;8.27;4.72;;;6.80;99.90;;;;;;4948688;29;20051;-84
2021/10/14 08:05:58;;;;;;;6.28;4.43;;;6.80;99.90;;;;;;4932538;29;20043;-86
2021/10/14 08:08:26;;;;;;;5.03;4.53;;;6.70;99.90;;;;;;4901381;29;20055;-84
2021/10/14 08:10:55;;;;;;;7.80;5.25;;;6.90;99.90;;;;;;4932371;29;20039;-86
2021/10/14 08:13:24;;;;;;;8.75;3.88;;;7.00;99.90;;;;;;4960057;28;20040;-85
2021/10/14 08:15:53;;;;;;;3.90;3.60;;;7.00;99.90;;;;;;4952299;29;20051;-87
2021/10/14 08:18:23;;;;;;;7.20;3.45;;;7.10;99.90;;;;;;4919937;29;20055;-86
2021/10/14 08:20:53;;;;;;;7.63;3.55;;;7.20;99.90;;;;;;4951022;28;20051;-88
2021/10/14 08:23:21;;;;;;;8.55;5.47;;;7.20;99.90;;;;;;4935507;29;20070;-86
2021/10/14 08:25:51;;;;;;;6.20;3.33;;;7.20;99.90;;;;;;4950603;28;20058;-85
2021/10/14 08:28:23;;;;;;;3.78;3.33;;;7.20;99.90;;;;;;4935360;29;20043;-87
2021/10/14 08:30:51;;;;;;;4.72;3.75;;;7.30;99.90;;;;;;4950805;28;20039;-87
2021/10/14 08:33:20;;;;;;;4.05;3.38;;;7.60;99.90;;;;;;4935509;29;20043;-87
2021/10/14 08:35:48;;;;;;;5.07;3.80;;;7.60;99.90;;;;;;4951869;29;20547;-86
2021/10/14 08:38:16;;;;;;;4.13;3.65;;;7.60;99.90;;;;;;4951974;28;20043;-87
2021/10/14 08:40:47;;;;;;;4.68;3.55;;;7.60;99.90;;;;;;4938113;28;20059;-86
2021/10/14 08:43:17;;;;;;;5.03;3.88;;;7.70;99.90;;;;;;4954196;28;20047;-86
2021/10/14 08:45:47;;;;;;;6.88;4.90;;;7.60;99.90;;;;;;4954234;28;20042;-86
2021/10/14 08:48:15;;;;;;;6.75;5.03;;;7.60;99.90;;;;;;4926503;29;20476;-85
2021/10/14 08:50:47;;;;;;;4.25;3.30;;;7.50;99.90;;;;;;4918926;29;20505;-87
2021/10/14 08:53:15;;;;;;;4.68;3.92;;;7.50;99.90;;;;;;4934957;29;20062;-86
2021/10/14 08:55:43;;;;;;;6.40;3.97;;;7.40;99.90;;;;;;4935187;28;20047;-86
2021/10/14 08:58:13;;;;;;;4.10;3.70;;;7.50;99.90;;;;;;4934434;29;20066;-86
2021/10/14 09:01:02;;;;;;;4.77;3.33;;;7.40;99.90;;;;;;4934454;28;20058;-86
2021/10/14 09:03:31;;;;;;;3.63;2.47;;;7.40;99.90;;;;;;4935271;29;20047;-87
2021/10/14 09:05:59;;;;;;;4.72;3.65;;;7.40;99.90;;;;;;4951821;29;20070;-86
2021/10/14 09:08:35;;;;;;;4.10;3.45;;;7.50;99.90;;;;;;4935127;29;20047;-86
2021/10/14 09:11:10;;;;;;;3.30;2.97;;;7.60;99.90;;;;;;4951304;29;20051;-86
2021/10/14 09:13:56;;;;;;;3.15;2.70;;;7.60;99.90;;;;;;4933526;29;20448;-86
2021/10/14 09:16:30;;;;;;;4.63;4.22;;;7.60;99.90;;;;;;4934994;29;20051;-86
2021/10/14 09:19:11;;;;;;;3.83;3.22;;;7.50;99.90;;;;;;4951199;29;20382;-85
2021/10/14 09:21:42;;;;;;;3.28;2.72;;;7.60;99.90;;;;;;4934267;28;20047;-86
2021/10/14 09:24:31;;;;;;;4.03;3.10;;;7.60;99.90;;;;;;4919162;28;20051;-85
2021/10/14 09:27:11;;;;;;;4.18;3.67;;;7.70;99.90;;;;;;4915591;29;20043;-85
2021/10/14 09:29:43;;;;;;;3.42;3.13;;;7.80;99.90;;;;;;4907192;29;20556;-86
2021/10/14 09:32:18;;;;;;;3.50;3.20;;;7.90;99.90;;;;;;4911345;29;20048;-86
2021/10/14 09:34:50;;;;;;;3.65;2.90;;;7.90;99.90;;;;;;4935380;29;20062;-86
2021/10/14 09:37:18;;;;;;;2.25;2.00;;;7.70;99.90;;;;;;4923123;29;20051;-85
2021/10/14 09:39:57;;;;;;;2.78;2.22;;;7.70;99.90;;;;;;4915724;29;20509;-86
2021/10/14 09:42:44;;;;;;;3.70;3.35;;;7.60;99.90;;;;;;4934227;29;20059;-87
2021/10/14 09:45:19;;;;;;;5.60;2.75;;;7.60;99.90;;;;;;4934014;29;20043;-87
2021/10/14 09:47:49;;;;;;;2.22;2.13;;;7.60;99.90;;;;;;4947732;28;20043;-86
2021/10/14 09:50:18;;;;;;;4.45;2.40;;;7.70;99.90;;;;;;4936836;28;20051;-86
2021/10/14 09:52:46;;;;;;;2.67;2.47;;;7.70;99.90;;;;;;4930059;28;20054;-85
2021/10/14 09:55:18;;;;;;;6.72;4.43;;;7.70;99.90;;;;;;4934512;29;20078;-85
2021/10/14 09:57:46;;;;;;;2.75;2.55;;;7.70;99.90;;;;;;4950078;28;20043;-87
2021/10/14 10:00:14;;;;;;;2.80;2.45;;;7.80;99.90;;;;;;4933931;29;20059;-85
2021/10/14 10:02:44;;;;;;;3.30;3.05;;;7.90;99.90;;;;;;4934059;29;20047;-85
2021/10/14 10:05:12;;;;;;;3.47;3.17;;;8.00;99.90;;;;;;4932591;28;20047;-87
2021/10/14 10:07:43;;;;;;;2.92;2.25;;;8.00;99.90;;;;;;4973227;28;20051;-87
2021/10/14 10:10:16;;;;;;;3.55;2.55;;;8.00;99.90;;;;;;4966188;28;20051;-82
2021/10/14 10:12:46;;;;;;;2.92;2.28;;;7.90;99.90;;;;;;4953358;28;20054;-82
2021/10/14 10:15:14;;;;;;;4.28;2.25;;;8.10;99.90;;;;;;4954036;29;20507;-84
2021/10/14 10:17:43;;;;;;;5.50;3.17;;;8.30;99.90;;;;;;4953187;28;20055;-83
2021/10/14 10:20:37;;;;;;;2.28;2.08;;;8.40;99.90;;;;;;4953678;29;20058;-82
2021/10/14 10:23:05;;;;;;;4.72;2.88;;;8.60;99.90;;;;;;4952967;29;20047;-83
2021/10/14 10:34:39;;;;;;;1.80;1.65;;;8.50;99.90;;;;;;4933861;29;20070;-87
2021/10/14 10:40:11;;;;;;;1.60;1.40;;;8.80;99.90;;;;;;4934537;29;20055;-88
2021/10/14 10:42:49;;;;;;;2.33;2.22;;;8.80;99.90;;;;;;4934683;29;20063;-87
2021/10/14 10:45:24;;;;;;;3.40;3.17;;;8.90;99.90;;;;;;4919841;29;20044;-84
2021/10/14 10:47:57;;;;;;;1.70;1.60;;;9.00;99.90;;;;;;4935934;29;20055;-84
2021/10/14 10:50:43;;;;;;;2.05;1.35;;;9.00;99.90;;;;;;4934759;29;20052;-83
2021/10/14 10:53:11;;;;;;;4.50;1.90;;;8.90;99.90;;;;;;4932324;29;20405;-85
2021/10/14 10:55:42;;;;;;;2.47;1.92;;;8.80;99.90;;;;;;4939201;29;20047;-83
2021/10/14 10:58:49;;;;;;;2.13;1.92;;;8.90;99.90;;;;;;4939210;29;20054;-84
2021/10/14 11:01:18;;;;;;;1.90;1.80;;;8.80;99.90;;;;;;4952703;29;20047;-82
2021/10/14 11:04:07;;;;;;;1.48;1.38;;;8.90;99.90;;;;;;4956484;28;20046;-82
2021/10/14 11:06:38;;;;;;;2.00;1.90;;;9.00;99.90;;;;;;4973106;28;20051;-80
2021/10/14 11:09:11;;;;;;;3.55;1.63;;;9.10;99.90;;;;;;4973052;28;20049;-79
2021/10/14 11:11:39;;;;;;;2.45;1.75;;;9.20;99.90;;;;;;4972812;28;20392;-80
2021/10/14 11:14:07;;;;;;;2.75;2.38;;;9.40;99.90;;;;;;4972552;28;20055;-80
2021/10/14 11:16:34;;;;;;;3.47;1.98;;;9.30;99.90;;;;;;4972393;28;20054;-80
2021/10/14 11:19:03;;;;;;;3.50;2.13;;;9.40;99.90;;;;;;4973381;28;20498;-79
2021/10/14 11:21:40;;;;;;;2.50;1.85;;;9.40;99.90;;;;;;4972832;28;20419;-85
2021/10/14 11:24:08;;;;;;;2.97;1.45;;;9.40;99.90;;;;;;4955999;28;20050;-86
2021/10/14 11:26:41;;;;;;;4.55;3.13;;;9.30;99.90;;;;;;4948283;29;20043;-80
2021/10/14 11:29:17;;;;;;;2.78;1.98;;;9.40;99.90;;;;;;4951827;28;20047;-80
2021/10/14 11:31:56;;;;;;;5.43;2.17;;;9.40;99.90;;;;;;4961855;28;20058;-80
2021/10/14 11:34:26;;;;;;;3.33;1.73;;;9.40;99.90;;;;;;4972095;28;20054;-80
2021/10/14 11:37:09;;;;;;;2.60;2.40;;;9.50;99.90;;;;;;4972754;28;20516;-83
2021/10/14 11:39:57;;;;;;;2.15;2.03;;;9.60;99.90;;;;;;4958372;28;20090;-84
2021/10/14 11:42:28;;;;;;;2.42;2.33;;;9.80;99.90;;;;;;4976086;28;20042;-82
2021/10/14 11:45:04;;;;;;;3.03;2.28;;;9.70;99.90;;;;;;4966093;28;20058;-84
2021/10/14 11:47:32;;;;;;;2.75;2.55;;;9.90;99.90;;;;;;4983865;28;20058;-79
2021/10/14 11:50:10;;;;;;;3.90;2.22;;;9.90;99.90;;;;;;4970885;28;20070;-81
2021/10/14 11:52:42;;;;;;;2.60;1.85;;;9.90;99.90;;;;;;4971940;28;20503;-82
2021/10/14 11:55:10;;;;;;;1.88;1.70;;;10.20;99.90;;;;;;4972815;28;20507;-81
2021/10/14 11:57:38;;;;;;;1.90;1.80;;;10.60;99.90;;;;;;4971553;28;20051;-81
2021/10/14 12:00:15;;;;;;;3.58;1.92;;;10.80;99.90;;;;;;4972342;28;20054;-83
2021/10/14 12:02:43;;;;;;;1.98;1.83;;;10.60;99.90;;;;;;4971900;28;20411;-82
2021/10/14 12:05:11;;;;;;;1.73;1.63;;;10.50;99.90;;;;;;4972102;28;20116;-81
2021/10/14 12:07:43;;;;;;;1.55;1.45;;;10.50;99.90;;;;;;4970999;28;20058;-82
2021/10/14 12:10:58;;;;;;;6.97;1.92;;;10.50;99.90;;;;;;4970338;28;20050;-86
2021/10/14 12:13:32;;;;;;;2.03;1.60;;;10.50;99.90;;;;;;4968778;28;20062;-82
2021/10/14 12:16:14;;;;;;;1.63;1.33;;;10.40;99.90;;;;;;4936270;29;20062;-81
2021/10/14 12:18:43;;;;;;;;;;;10.40;99.90;;;;;;4925757;29;20555;-82
2021/10/14 12:21:32;;;;;;;1.10;1.00;;;10.40;99.90;;;;;;4943404;28;19933;-83
2021/10/14 12:24:13;;;;;;;1.80;1.55;;;10.20;99.90;;;;;;4959899;28;20051;-84
2021/10/14 12:26:41;;;;;;;1.92;1.38;;;10.30;99.90;;;;;;4951934;28;20047;-81
2021/10/14 12:29:25;;;;;;;4.60;1.77;;;10.40;99.90;;;;;;4951258;28;20043;-82
2021/10/14 12:32:05;;;;;;;1.40;1.08;;;10.40;99.90;;;;;;4952531;29;20417;-82
2021/10/14 12:34:46;;;;;;;2.40;1.75;;;10.40;99.90;;;;;;4952230;28;20039;-83
2021/10/14 12:37:15;;;;;;;1.80;1.20;;;10.40;99.90;;;;;;4946045;28;20043;-82
2021/10/14 12:40:20;;;;;;;1.88;1.45;;;10.40;99.90;;;;;;4968940;28;20519;-84
2021/10/14 12:43:12;;;;;;;1.38;1.25;;;10.30;99.90;;;;;;4951399;28;20049;-81
2021/10/14 12:48:23;;;;;;;1.38;1.27;;;10.40;99.90;;;;;;4940473;29;20062;-78
2021/10/14 12:51:40;;;;;;;4.10;1.75;;;10.30;99.90;;;;;;4948847;29;20055;-77
2021/10/14 12:53:42;;;;;;;;;;;10.20;99.90;;;;;;4939853;29;20054;-79
2021/10/14 12:56:12;;;;;;;7.13;1.70;;;10.30;99.90;;;;;;4949710;28;19934;-78
2021/10/14 12:58:40;;;;;;;3.63;1.30;;;10.20;99.90;;;;;;4948348;29;20054;-80
2021/10/14 13:01:19;;;;;;;3.95;1.40;;;10.20;99.90;;;;;;4962988;23;20031;-78
2021/10/14 13:03:50;;;;;;;1.55;1.30;;;10.20;99.90;;;;;;4937943;28;20039;-78
2021/10/14 13:06:18;;;;;;;1.40;1.20;;;10.10;99.90;;;;;;4970918;28;20050;-79
2021/10/14 13:08:47;;;;;;;4.00;1.98;;;10.10;99.90;;;;;;4970766;28;20057;-78
2021/10/14 13:11:17;;;;;;;1.35;1.25;;;10.10;99.90;;;;;;4970493;28;20062;-78
2021/10/14 13:13:45;;;;;;;2.10;1.60;;;10.20;99.90;;;;;;4970230;28;20050;-78
2021/10/14 13:16:12;;;;;;;6.75;1.45;;;10.20;99.90;;;;;;4971159;28;20054;-79
2021/10/14 13:18:40;;;;;;;2.88;1.60;;;10.20;99.90;;;;;;4953312;28;20488;-79
2021/10/14 13:21:11;;;;;;;3.20;2.90;;;10.10;99.90;;;;;;4953053;28;20043;-79
2021/10/14 13:23:39;;;;;;;3.58;3.25;;;10.20;99.90;;;;;;4970708;28;20054;-79
2021/10/14 13:26:07;;;;;;;3.92;1.23;;;10.20;99.90;;;;;;4954906;28;20051;-79